Latest Coastal Weather Observations for Rottnest Island

IDW60701

Issued at 11:23 am WST Wednesday 28 September 2016 (issued every 10 minutes, with the page automatically refreshed every 10 minutes)

About coastal observations | Map of coastal stations | Coastal observations for WA | Marine services | Other Formats
Station Details ID: 009193 Name: ROTTNEST ISLAND Lat: -32.01 Lon: 115.50 Height: 43.1 m
Data from the previous 72 hours. | See also: Recent months at Rottnest Island
Date/Time
WST
Temp
°C
Wind Pressure Rain since
9am
mm
Weather Cloud Vis
km
Sea
Height
m
Swell
Dir  Spd
kts
Gust
kts
hPa Trend Height
m
Period
s
Dir
28/11:00am 12.5 S 15 20 1023.8 - 0.0 - - - - - - -
28/10:30am 12.1 SSE 16 21 1023.9 - 0.0 - - - - - - -
28/10:00am 11.9 SSE 17 21 1023.7 - 0.0 - - - - - - -
28/09:30am 11.5 SSE 15 21 1023.6 - 0.0 - - - - - - -
28/09:00am 11.7 SSE 16 23 1023.4 - 2.2 - - - - - - -
28/08:30am 12.1 SSE 16 22 1023.1 - 2.2 - - - - - - -
28/08:00am 11.5 SSE 17 22 1022.7 - 2.2 - - - - - - -
28/07:30am 10.6 SSE 14 19 1022.4 - 2.2 - - - - - - -
28/07:08am 11.4 S 22 32 1021.8 - 2.2 - - - - - - -
28/07:00am 11.9 S 24 32 1021.4 - 2.2 - - - - - - -
28/06:30am 11.1 S 23 31 1020.9 - 2.2 - - - - - - -
28/06:00am 10.9 S 24 32 1020.3 - 2.2 - - - - - - -
28/05:30am 11.0 S 24 30 1019.7 - 2.2 - - - - - - -
28/05:18am 10.7 S 24 34 1019.4 - 2.2 - - - - - - -
28/05:00am 10.7 S 26 34 1018.9 - 2.2 - - - - - - -
28/04:45am 10.7 S 23 33 1018.4 - 2.2 - - - - - - -
28/04:30am 10.7 S 24 31 1018.3 - 2.2 - - - - - - -
28/04:00am 10.9 S 25 30 1018.1 - 2.2 - - - - - - -
28/03:30am 10.6 S 25 32 1017.9 - 2.2 - - - - - - -
28/03:05am 10.4 S 25 35 1017.8 - 2.2 - - - - - - -
28/03:00am 10.4 S 28 35 1017.7 - 2.2 Recent precip. - - - - - -
28/02:30am 10.3 S 22 33 1017.4 - 2.2 - - - - - - -
28/02:05am 10.4 SSW 23 33 1017.4 - 1.8 - - - - - - -
28/02:00am 10.3 SSW 24 31 1017.8 - 1.8 - - - - - - -
28/01:30am 10.8 S 27 36 1017.0 - 1.8 - - - - - - -
28/01:28am 10.9 S 26 36 1017.0 - 1.8 - - - - - - -
28/01:13am 9.7 SSW 22 32 1017.9 - 1.6 - - - - - - -
28/01:00am 10.3 S 29 36 1016.9 - 1.6 - - - - - - -
28/12:30am 11.7 SSW 27 37 1016.7 - 1.6 - - - - - - -
28/12:05am 11.7 SSW 29 39 1016.6 - 1.6 - - - - - - -
28/12:00am 11.7 SSW 30 39 1016.6 - 1.6 - - - - - - -
 
Date/Time
WST
Temp
°C
Wind Pressure Rain since
9am
mm
Weather Cloud Vis
km
Sea
Height
m
Swell
Dir  Spd
kts
Gust
kts
hPa Trend Height
m
Period
s
Dir
27/11:49pm 12.0 SSW 26 38 1016.4 - 1.6 - - - - - - -
27/11:30pm 11.8 SSW 26 35 1016.5 - 1.6 - - - - - - -
27/11:06pm 12.0 SW 25 36 1016.5 - 1.6 - - - - - - -
27/11:00pm 11.6 SW 24 30 1016.7 - 1.6 - - - - - - -
27/10:41pm 12.0 SSW 25 35 1016.4 - 1.6 - - - - - - -
27/10:30pm 12.0 SSW 28 34 1016.4 - 1.6 - - - - - - -
27/10:00pm 10.6 SW 33 45 1016.5 - 1.6 - - - - - - -
27/09:49pm 12.5 SW 27 37 1016.4 - 1.4 - - - - - - -
27/09:46pm 11.9 SW 27 35 1016.5 - 1.4 - - - - - - -
27/09:30pm 10.9 SSW 35 49 1016.5 - 1.4 - - - - - - -
27/09:00pm 11.6 SSW 30 40 1015.7 - 1.4 - - - - - - -
27/08:30pm 11.1 SW 33 44 1016.0 - 1.4 - - - - - - -
27/08:24pm 12.6 SW 28 40 1015.7 - 1.4 - - - - - - -
27/08:00pm 13.1 SW 29 37 1015.4 - 1.4 - - - - - - -
27/07:47pm 13.0 SW 28 38 1014.7 - 1.4 - - - - - - -
27/07:30pm 12.6 SW 31 40 1014.8 - 1.4 - - - - - - -
27/07:03pm 13.0 SW 30 40 1014.4 - 1.4 - - - - - - -
27/07:00pm 13.0 SW 31 40 1014.4 - 1.4 - - - - - - -
27/06:32pm 13.0 SW 29 39 1013.5 - 1.4 - - - - - - -
27/06:30pm 13.0 SW 29 36 1013.6 - 1.4 - - - - - - -
27/06:09pm 13.1 SW 27 37 1013.7 - 1.4 - - - - - - -
27/06:00pm 13.0 SW 30 37 1013.6 - 1.4 - - - - - - -
27/05:38pm 13.6 SW 28 38 1013.2 - 1.4 - - - - - - -
27/05:30pm 13.3 SW 29 38 1012.9 - 1.4 - - - - - - -
27/05:07pm 13.5 SW 27 37 1012.6 - 1.4 - - - - - - -
27/05:00pm 13.0 SW 30 37 1012.7 - 1.4 - - - - - - -
27/04:30pm 14.4 SW 31 40 1011.9 - 1.4 - - - - - - -
27/04:18pm 13.8 SW 31 41 1011.8 - 1.4 - - - - - - -
27/04:00pm 14.2 SW 30 37 1011.7 - 1.4 - - - - - - -
27/03:41pm 14.7 SW 29 39 1011.4 - 1.4 - - - - - - -
27/03:30pm 14.5 SW 30 38 1011.3 - 1.4 - - - - - - -
27/03:01pm 13.9 SW 28 38 1010.9 - 1.4 - - - - - - -
27/03:00pm 13.8 SW 29 38 1010.9 - 1.4 - - - - - - -
27/02:36pm 14.6 WSW 27 37 1010.9 - 1.4 - - - - - - -
27/02:30pm 14.6 WSW 27 34 1010.7 - 1.4 - - - - - - -
27/02:09pm 14.5 SW 26 36 1010.5 - 1.4 - - - - - - -
27/02:00pm 13.9 SW 24 32 1010.5 - 1.4 - - - - - - -
27/01:39pm 13.1 SW 27 37 1010.8 - 1.0 - - - - - - -
27/01:30pm 12.8 SW 31 40 1010.6 - 1.0 - - - - - - -
27/01:13pm 12.7 WSW 31 43 1010.6 - 0.6 - - - - - - -
27/01:09pm 12.9 W 28 43 1010.5 - 0.4 - - - - - - -
27/01:07pm 14.1 W 27 38 1010.6 - 0.4 - - - - - - -
27/01:00pm 14.6 W 26 34 1010.4 - 0.4 - - - - - - -
27/12:30pm 13.6 W 26 41 1010.7 - 0.2 - - - - - - -
27/12:18pm 15.1 WNW 28 38 1010.9 - 0.0 - - - - - - -
27/12:00pm 18.0 WNW 25 33 1010.8 - 0.0 - - - - - - -
27/11:53am 18.6 WNW 28 38 1011.0 - 0.0 - - - - - - -
27/11:30am 17.8 WNW 25 34 1011.3 - 0.0 - - - - - - -
27/11:00am 18.2 WNW 26 36 1011.7 - 0.0 - - - - - - -
27/10:58am 18.2 WNW 25 36 1011.7 - 0.0 - - - - - - -
27/10:30am 18.0 WNW 27 34 1012.2 - 0.0 - - - - - - -
27/10:00am 18.4 WNW 24 30 1012.5 - 0.0 - - - - - - -
27/09:30am 17.5 WNW 23 29 1012.8 - 0.0 - - - - - - -
27/09:00am 17.3 WNW 22 27 1013.1 - 0.2 - - - - - - -
27/08:30am 17.0 WNW 21 28 1013.3 - 0.2 - - - - - - -
27/08:00am 16.7 WNW 21 27 1013.5 - 0.2 - - - - - - -
27/07:30am 15.6 WNW 22 29 1013.5 - 0.2 - - - - - - -
27/07:00am 15.0 WNW 18 23 1013.6 - 0.2 - - - - - - -
27/06:30am 15.2 WNW 18 22 1013.7 - 0.2 - - - - - - -
27/06:00am 15.3 WNW 19 25 1013.8 - 0.2 - - - - - - -
27/05:30am 15.1 WNW 21 26 1014.0 - 0.2 - - - - - - -
27/05:01am 15.1 WNW 18 28 1014.2 - 0.2 - - - - - - -
27/05:00am 15.1 WNW 17 23 1014.2 - 0.2 - - - - - - -
27/04:30am 15.0 WNW 18 23 1014.3 - 0.2 - - - - - - -
27/04:00am 14.8 WNW 17 22 1014.5 - 0.2 - - - - - - -
27/03:30am 14.5 WNW 17 22 1014.7 - 0.2 - - - - - - -
27/03:00am 13.6 WNW 12 15 1015.2 - 0.2 Recent precip. - - - - - -
27/02:30am 13.8 W 15 21 1015.7 - 0.2 - - - - - - -
27/02:08am 14.9 WNW 17 29 1015.8 - 0.0 - - - - - - -
27/02:00am 14.9 WNW 14 20 1016.0 - 0.0 - - - - - - -
27/01:30am 14.1 NW 12 16 1016.6 - 0.0 - - - - - - -
27/01:00am 14.5 W 16 25 1016.8 - 0.0 - - - - - - -
27/12:40am 14.5 WNW 19 29 1017.0 - 0.0 - - - - - - -
27/12:30am 15.3 WNW 17 22 1017.0 - 0.0 - - - - - - -
27/12:00am 15.5 WNW 19 25 1017.2 - 0.0 - - - - - - -
 
Date/Time
WST
Temp
°C
Wind Pressure Rain since
9am
mm
Weather Cloud Vis
km
Sea
Height
m
Swell
Dir  Spd
kts
Gust
kts
hPa Trend Height
m
Period
s
Dir
26/11:30pm 15.5 WNW 18 21 1017.5 - 0.0 - - - - - - -
26/11:00pm 15.8 WNW 16 22 1017.7 - 0.0 - - - - - - -
26/10:30pm 15.0 WNW 11 15 1018.2 - 0.0 - - - - - - -
26/10:00pm 14.9 W 13 16 1018.4 - 0.0 - - - - - - -
26/09:30pm 14.6 WSW 13 17 1018.5 - 0.0 - - - - - - -
26/09:00pm 15.7 W 14 19 1018.5 - 0.0 - - - - - - -
26/08:30pm 15.4 W 15 18 1018.5 - 0.0 - - - - - - -
26/08:00pm 15.3 WNW 14 18 1018.5 - 0.0 - - - - - - -
26/07:30pm 15.3 W 13 17 1018.3 - 0.0 - - - - - - -
26/07:00pm 15.0 WNW 13 17 1018.2 - 0.0 - - - - - - -
26/06:30pm 15.0 WNW 15 19 1018.2 - 0.0 - - - - - - -
26/06:00pm 15.2 WNW 16 20 1018.2 - 0.0 - - - - - - -
26/05:30pm 15.3 W 14 20 1018.3 - 0.0 - - - - - - -
26/05:00pm 15.7 W 12 16 1018.3 - 0.0 - - - - - - -
26/04:30pm 15.8 WNW 16 21 1018.3 - 0.0 - - - - - - -
26/04:00pm 15.8 WNW 15 19 1018.3 - 0.0 - - - - - - -
26/03:30pm 15.7 WNW 17 21 1018.4 - 0.0 - - - - - - -
26/03:00pm 16.4 WNW 15 19 1018.3 - 0.0 - - - - - - -
26/02:30pm 15.6 WNW 15 21 1018.6 - 0.0 - - - - - - -
26/02:00pm 16.0 WNW 15 20 1018.8 - 0.0 - - - - - - -
26/01:30pm 16.2 WNW 15 19 1019.0 - 0.0 - - - - - - -
26/01:00pm 15.6 WNW 13 17 1019.3 - 0.0 - - - - - - -
26/12:30pm 15.6 WNW 16 21 1019.9 - 0.0 - - - - - - -
26/12:00pm 15.8 W 15 19 1020.1 - 0.0 - - - - - - -
26/11:30am 15.7 W 15 18 1020.2 - 0.0 - - - - - - -
26/11:00am 16.2 W 15 19 1020.2 - 0.0 - - - - - - -
26/10:30am 15.3 WNW 13 17 1020.6 - 0.0 - - - - - - -
26/10:00am 15.6 WNW 14 18 1020.8 - 0.0 - - - - - - -
26/09:30am 15.9 WNW 13 18 1020.9 - 0.0 - - - - - - -
26/09:00am 15.6 W 13 18 1020.7 - 0.0 - - - - - - -
26/08:30am 14.8 W 13 19 1020.5 - 0.0 - - - - - - -
26/08:00am 14.5 W 12 16 1020.4 - 0.0 - - - - - - -
26/07:30am 14.4 W 13 17 1020.3 - 0.0 - - - - - - -
26/07:00am 13.7 WNW 11 15 1020.1 - 0.0 - - - - - - -
26/06:30am 13.3 W 10 15 1020.1 - 0.0 - - - - - - -
26/06:00am 12.9 W 10 14 1019.9 - 0.0 - - - - - - -
26/05:30am 12.6 W 8 10 1019.7 - 0.0 - - - - - - -
26/05:00am 12.1 WSW 9 11 1019.6 - 0.0 - - - - - - -
26/04:30am 11.8 WSW 8 11 1019.6 - 0.0 - - - - - - -
26/04:00am 11.5 WSW 8 11 1019.7 - 0.0 - - - - - - -
26/03:30am 11.6 SW 10 13 1020.0 - 0.0 - - - - - - -
26/03:00am 11.3 WSW 8 11 1019.9 - 0.0 - - - - - - -
26/02:30am 11.7 WSW 9 11 1019.7 - 0.0 - - - - - - -
26/02:00am 11.9 WSW 10 13 1020.1 - 0.0 - - - - - - -
26/01:30am 11.5 SW 9 14 1020.3 - 0.0 - - - - - - -
26/01:00am 12.0 SSW 9 11 1020.0 - 0.0 - - - - - - -
26/12:30am 12.2 SSW 11 15 1020.6 - 0.0 - - - - - - -
26/12:00am 12.3 SSW 11 14 1020.7 - 0.0 - - - - - - -
 
Date/Time
WST
Temp
°C
Wind Pressure Rain since
9am
mm
Weather Cloud Vis
km
Sea
Height
m
Swell
Dir  Spd
kts
Gust
kts
hPa Trend Height
m
Period
s
Dir
25/11:30pm 12.7 SSW 12 16 1020.8 - 0.0 - - - - - - -
25/11:00pm 12.6 S 13 15 1020.6 - 0.0 - - - - - - -
25/10:30pm 12.5 SSW 13 16 1020.5 - 0.0 - - - - - - -
25/10:00pm 12.8 S 13 17 1020.7 - 0.0 - - - - - - -
25/09:30pm 12.7 S 14 16 1020.8 - 0.0 - - - - - - -
25/09:00pm 12.8 S 12 19 1020.8 - 0.0 - - - - - - -
25/08:30pm 12.8 S 14 19 1020.8 - 0.0 - - - - - - -
25/08:00pm 12.7 S 14 18 1020.6 - 0.0 - - - - - - -
25/07:30pm 12.8 SSW 15 18 1020.4 - 0.0 - - - - - - -
25/07:00pm 12.8 SSW 15 19 1020.1 - 0.0 - - - - - - -
25/06:30pm 12.8 SSW 17 21 1019.7 - 0.0 - - - - - - -
25/06:00pm 12.9 S 17 22 1019.4 - 0.0 - - - - - - -
25/05:30pm 13.3 S 15 19 1019.0 - 0.0 - - - - - - -
25/05:00pm 13.8 SSW 18 23 1018.9 - 0.0 - - - - - - -
25/04:30pm 13.9 SSW 17 22 1018.7 - 0.0 - - - - - - -
25/04:00pm 14.1 SSW 16 22 1018.4 - 0.0 - - - - - - -
25/03:30pm 13.8 SSW 18 21 1018.2 - 0.0 - - - - - - -
25/03:00pm 14.1 S 17 21 1017.9 - 0.0 - - - - - - -
25/02:30pm 14.0 S 15 19 1017.9 - 0.0 - - - - - - -
25/02:00pm 14.6 S 17 22 1018.0 - 0.0 - - - - - - -
25/01:30pm 14.1 S 16 22 1018.0 - 0.0 - - - - - - -
25/01:00pm 13.5 S 19 26 1018.0 - 0.0 - - - - - - -
25/12:30pm 13.6 S 20 25 1018.2 - 0.0 - - - - - - -
25/12:00pm 13.5 S 19 29 1018.5 - 0.0 - - - - - - -
25/11:30am 13.4 S 21 26 1018.5 - 0.0 - - - - - - -

Other Formats:

Comma delimited format used in spreadsheet applications
http://www.bom.gov.au/fwo/IDW60701/IDW60701.94602.axf

JavaScript Object Notation format (JSON) in row-major order
http://www.bom.gov.au/fwo/IDW60701/IDW60701.94602.json